sensor_id;sensor_type;location;lat;lon;timestamp;P1;durP1;ratioP1;P2;durP2;ratioP2
11777;SDS011;5946;51.770;8.548;2023-05-02T00:01:14;15.70;;;14.20;;
11777;SDS011;5946;51.770;8.548;2023-05-02T00:03:41;15.53;;;13.80;;
11777;SDS011;5946;51.770;8.548;2023-05-02T00:06:07;15.87;;;14.23;;
11777;SDS011;5946;51.770;8.548;2023-05-02T00:08:33;15.63;;;14.10;;
11777;SDS011;5946;51.770;8.548;2023-05-02T00:10:59;15.03;;;13.43;;
11777;SDS011;5946;51.770;8.548;2023-05-02T00:13:25;15.63;;;14.03;;
11777;SDS011;5946;51.770;8.548;2023-05-02T00:15:51;15.80;;;14.20;;
11777;SDS011;5946;51.770;8.548;2023-05-02T00:18:17;15.27;;;13.50;;
11777;SDS011;5946;51.770;8.548;2023-05-02T00:20:43;16.07;;;14.37;;
11777;SDS011;5946;51.770;8.548;2023-05-02T00:23:09;15.20;;;13.67;;
11777;SDS011;5946;51.770;8.548;2023-05-02T00:25:42;15.63;;;13.93;;
11777;SDS011;5946;51.770;8.548;2023-05-02T00:28:08;15.00;;;13.60;;
11777;SDS011;5946;51.770;8.548;2023-05-02T00:30:34;15.50;;;14.00;;
11777;SDS011;5946;51.770;8.548;2023-05-02T00:33:00;17.93;;;15.00;;
11777;SDS011;5946;51.770;8.548;2023-05-02T00:35:26;17.43;;;14.23;;
11777;SDS011;5946;51.770;8.548;2023-05-02T00:37:52;16.93;;;14.90;;
11777;SDS011;5946;51.770;8.548;2023-05-02T00:40:18;17.57;;;15.73;;
11777;SDS011;5946;51.770;8.548;2023-05-02T00:42:45;17.60;;;15.80;;
11777;SDS011;5946;51.770;8.548;2023-05-02T00:45:10;17.60;;;15.87;;
11777;SDS011;5946;51.770;8.548;2023-05-02T00:47:36;19.03;;;16.60;;
11777;SDS011;5946;51.770;8.548;2023-05-02T00:50:02;19.47;;;16.17;;
11777;SDS011;5946;51.770;8.548;2023-05-02T00:52:29;19.07;;;16.83;;
11777;SDS011;5946;51.770;8.548;2023-05-02T00:54:55;19.03;;;17.03;;
11777;SDS011;5946;51.770;8.548;2023-05-02T00:57:22;19.33;;;17.27;;
11777;SDS011;5946;51.770;8.548;2023-05-02T00:59:49;22.23;;;19.03;;
11777;SDS011;5946;51.770;8.548;2023-05-02T01:04:59;26.27;;;22.63;;
11777;SDS011;5946;51.770;8.548;2023-05-02T01:10:17;30.47;;;24.40;;
11777;SDS011;5946;51.770;8.548;2023-05-02T01:12:45;32.10;;;26.47;;
11777;SDS011;5946;51.770;8.548;2023-05-02T01:15:15;33.00;;;26.97;;
11777;SDS011;5946;51.770;8.548;2023-05-02T01:17:42;34.40;;;29.27;;
11777;SDS011;5946;51.770;8.548;2023-05-02T01:20:11;37.60;;;30.53;;
11777;SDS011;5946;51.770;8.548;2023-05-02T01:22:38;37.70;;;29.93;;
11777;SDS011;5946;51.770;8.548;2023-05-02T01:30:16;44.37;;;33.53;;
11777;SDS011;5946;51.770;8.548;2023-05-02T01:32:44;46.17;;;34.37;;
11777;SDS011;5946;51.770;8.548;2023-05-02T01:35:11;47.03;;;34.40;;
11777;SDS011;5946;51.770;8.548;2023-05-02T01:37:39;50.67;;;37.63;;
11777;SDS011;5946;51.770;8.548;2023-05-02T01:40:06;53.80;;;39.47;;
11777;SDS011;5946;51.770;8.548;2023-05-02T01:42:33;57.83;;;38.93;;
11777;SDS011;5946;51.770;8.548;2023-05-02T01:45:02;56.43;;;39.47;;
11777;SDS011;5946;51.770;8.548;2023-05-02T01:47:29;60.27;;;42.43;;
11777;SDS011;5946;51.770;8.548;2023-05-02T01:49:57;60.53;;;41.23;;
11777;SDS011;5946;51.770;8.548;2023-05-02T01:52:24;58.43;;;42.27;;
11777;SDS011;5946;51.770;8.548;2023-05-02T01:54:52;60.63;;;43.07;;
11777;SDS011;5946;51.770;8.548;2023-05-02T01:57:18;60.50;;;40.90;;
11777;SDS011;5946;51.770;8.548;2023-05-02T01:59:44;60.50;;;41.77;;
11777;SDS011;5946;51.770;8.548;2023-05-02T02:02:12;61.67;;;42.17;;
11777;SDS011;5946;51.770;8.548;2023-05-02T02:04:39;60.87;;;42.73;;
11777;SDS011;5946;51.770;8.548;2023-05-02T02:07:05;59.37;;;42.77;;
11777;SDS011;5946;51.770;8.548;2023-05-02T02:09:32;55.00;;;40.70;;
11777;SDS011;5946;51.770;8.548;2023-05-02T02:12:11;61.70;;;42.70;;
11777;SDS011;5946;51.770;8.548;2023-05-02T02:14:38;63.40;;;42.77;;
11777;SDS011;5946;51.770;8.548;2023-05-02T02:17:05;57.80;;;41.87;;
11777;SDS011;5946;51.770;8.548;2023-05-02T02:19:35;65.00;;;42.67;;
11777;SDS011;5946;51.770;8.548;2023-05-02T02:22:02;60.87;;;42.10;;
11777;SDS011;5946;51.770;8.548;2023-05-02T02:24:29;63.63;;;42.33;;
11777;SDS011;5946;51.770;8.548;2023-05-02T02:26:56;60.13;;;41.97;;
11777;SDS011;5946;51.770;8.548;2023-05-02T02:29:23;60.23;;;41.67;;
11777;SDS011;5946;51.770;8.548;2023-05-02T02:31:49;57.30;;;42.13;;
11777;SDS011;5946;51.770;8.548;2023-05-02T02:34:15;63.17;;;42.83;;
11777;SDS011;5946;51.770;8.548;2023-05-02T02:36:43;61.73;;;43.20;;
11777;SDS011;5946;51.770;8.548;2023-05-02T02:41:47;57.93;;;40.43;;
11777;SDS011;5946;51.770;8.548;2023-05-02T02:44:31;57.17;;;40.37;;
11777;SDS011;5946;51.770;8.548;2023-05-02T02:47:09;57.23;;;38.77;;
11777;SDS011;5946;51.770;8.548;2023-05-02T02:50:10;52.07;;;37.40;;
11777;SDS011;5946;51.770;8.548;2023-05-02T02:54:58;53.67;;;36.47;;
11777;SDS011;5946;51.770;8.548;2023-05-02T03:00:15;54.93;;;33.20;;
11777;SDS011;5946;51.770;8.548;2023-05-02T03:02:42;47.37;;;32.50;;
11777;SDS011;5946;51.770;8.548;2023-05-02T03:05:10;46.20;;;31.70;;
11777;SDS011;5946;51.770;8.548;2023-05-02T03:07:37;46.57;;;30.70;;
11777;SDS011;5946;51.770;8.548;2023-05-02T03:10:03;42.17;;;29.23;;
11777;SDS011;5946;51.770;8.548;2023-05-02T03:12:29;45.40;;;29.07;;
11777;SDS011;5946;51.770;8.548;2023-05-02T03:15:06;42.73;;;28.67;;
11777;SDS011;5946;51.770;8.548;2023-05-02T03:17:36;45.47;;;29.67;;
11777;SDS011;5946;51.770;8.548;2023-05-02T03:20:02;44.13;;;30.47;;
11777;SDS011;5946;51.770;8.548;2023-05-02T03:22:28;45.40;;;28.37;;
11777;SDS011;5946;51.770;8.548;2023-05-02T03:24:54;47.53;;;29.50;;
11777;SDS011;5946;51.770;8.548;2023-05-02T03:27:20;43.30;;;25.87;;
11777;SDS011;5946;51.770;8.548;2023-05-02T03:29:46;38.53;;;26.20;;
11777;SDS011;5946;51.770;8.548;2023-05-02T03:32:12;40.27;;;25.83;;
11777;SDS011;5946;51.770;8.548;2023-05-02T03:34:38;38.77;;;26.30;;
11777;SDS011;5946;51.770;8.548;2023-05-02T03:37:05;40.43;;;26.57;;
11777;SDS011;5946;51.770;8.548;2023-05-02T03:39:31;38.17;;;26.23;;
11777;SDS011;5946;51.770;8.548;2023-05-02T03:41:57;44.10;;;27.80;;
11777;SDS011;5946;51.770;8.548;2023-05-02T03:44:23;40.43;;;26.63;;
11777;SDS011;5946;51.770;8.548;2023-05-02T03:46:49;39.40;;;26.50;;
11777;SDS011;5946;51.770;8.548;2023-05-02T03:49:15;41.27;;;27.27;;
11777;SDS011;5946;51.770;8.548;2023-05-02T03:51:43;41.97;;;27.27;;
11777;SDS011;5946;51.770;8.548;2023-05-02T03:54:09;41.10;;;26.30;;
11777;SDS011;5946;51.770;8.548;2023-05-02T03:56:35;37.83;;;26.00;;
11777;SDS011;5946;51.770;8.548;2023-05-02T03:59:02;38.50;;;26.07;;
11777;SDS011;5946;51.770;8.548;2023-05-02T04:01:28;38.30;;;25.57;;
11777;SDS011;5946;51.770;8.548;2023-05-02T04:03:54;40.83;;;26.47;;
11777;SDS011;5946;51.770;8.548;2023-05-02T04:06:20;41.80;;;26.63;;
11777;SDS011;5946;51.770;8.548;2023-05-02T04:08:46;42.53;;;27.73;;
11777;SDS011;5946;51.770;8.548;2023-05-02T04:11:12;46.07;;;28.57;;
11777;SDS011;5946;51.770;8.548;2023-05-02T04:13:38;48.77;;;29.17;;
11777;SDS011;5946;51.770;8.548;2023-05-02T04:16:04;50.47;;;29.27;;
11777;SDS011;5946;51.770;8.548;2023-05-02T04:18:30;42.97;;;27.50;;
11777;SDS011;5946;51.770;8.548;2023-05-02T04:20:56;46.37;;;28.27;;
11777;SDS011;5946;51.770;8.548;2023-05-02T04:23:22;46.47;;;28.73;;
11777;SDS011;5946;51.770;8.548;2023-05-02T04:25:51;48.23;;;29.67;;
11777;SDS011;5946;51.770;8.548;2023-05-02T04:28:18;45.00;;;28.20;;
11777;SDS011;5946;51.770;8.548;2023-05-02T04:30:44;46.23;;;28.23;;
11777;SDS011;5946;51.770;8.548;2023-05-02T04:33:10;44.77;;;28.53;;
11777;SDS011;5946;51.770;8.548;2023-05-02T04:35:38;48.37;;;28.63;;
11777;SDS011;5946;51.770;8.548;2023-05-02T04:38:04;46.63;;;28.63;;
11777;SDS011;5946;51.770;8.548;2023-05-02T04:40:31;47.90;;;28.53;;
11777;SDS011;5946;51.770;8.548;2023-05-02T04:42:57;47.83;;;29.07;;
11777;SDS011;5946;51.770;8.548;2023-05-02T04:45:23;48.63;;;29.73;;
11777;SDS011;5946;51.770;8.548;2023-05-02T04:47:49;52.43;;;30.20;;
11777;SDS011;5946;51.770;8.548;2023-05-02T04:50:15;48.47;;;29.60;;
11777;SDS011;5946;51.770;8.548;2023-05-02T04:52:41;48.50;;;30.17;;
11777;SDS011;5946;51.770;8.548;2023-05-02T04:55:07;49.83;;;29.73;;
11777;SDS011;5946;51.770;8.548;2023-05-02T04:57:33;50.40;;;29.17;;
11777;SDS011;5946;51.770;8.548;2023-05-02T04:59:59;53.00;;;29.83;;
11777;SDS011;5946;51.770;8.548;2023-05-02T05:02:25;46.10;;;28.70;;
11777;SDS011;5946;51.770;8.548;2023-05-02T05:04:51;53.13;;;29.63;;
11777;SDS011;5946;51.770;8.548;2023-05-02T05:07:17;50.53;;;29.57;;
11777;SDS011;5946;51.770;8.548;2023-05-02T05:09:44;53.57;;;30.73;;
11777;SDS011;5946;51.770;8.548;2023-05-02T05:12:10;52.07;;;30.50;;
11777;SDS011;5946;51.770;8.548;2023-05-02T05:14:36;57.40;;;32.77;;
11777;SDS011;5946;51.770;8.548;2023-05-02T05:17:02;56.33;;;31.13;;
11777;SDS011;5946;51.770;8.548;2023-05-02T05:19:28;56.13;;;31.93;;
11777;SDS011;5946;51.770;8.548;2023-05-02T05:21:53;56.03;;;30.87;;
11777;SDS011;5946;51.770;8.548;2023-05-02T05:24:20;59.43;;;32.00;;
11777;SDS011;5946;51.770;8.548;2023-05-02T05:26:45;59.27;;;35.03;;
11777;SDS011;5946;51.770;8.548;2023-05-02T05:29:11;61.87;;;34.10;;
11777;SDS011;5946;51.770;8.548;2023-05-02T05:31:37;67.00;;;36.57;;
11777;SDS011;5946;51.770;8.548;2023-05-02T05:34:03;75.03;;;37.67;;
11777;SDS011;5946;51.770;8.548;2023-05-02T05:36:30;79.80;;;39.00;;
11777;SDS011;5946;51.770;8.548;2023-05-02T05:38:56;78.00;;;39.37;;
11777;SDS011;5946;51.770;8.548;2023-05-02T05:41:22;90.43;;;40.50;;
11777;SDS011;5946;51.770;8.548;2023-05-02T05:43:48;81.73;;;41.00;;
11777;SDS011;5946;51.770;8.548;2023-05-02T05:46:14;78.77;;;39.63;;
11777;SDS011;5946;51.770;8.548;2023-05-02T05:48:40;81.70;;;40.03;;
11777;SDS011;5946;51.770;8.548;2023-05-02T05:51:06;84.40;;;40.93;;
11777;SDS011;5946;51.770;8.548;2023-05-02T05:53:32;91.57;;;40.90;;
11777;SDS011;5946;51.770;8.548;2023-05-02T05:56:06;92.07;;;43.27;;
11777;SDS011;5946;51.770;8.548;2023-05-02T05:58:33;83.23;;;41.33;;
11777;SDS011;5946;51.770;8.548;2023-05-02T06:00:59;99.50;;;42.07;;
11777;SDS011;5946;51.770;8.548;2023-05-02T06:03:26;87.30;;;40.43;;
11777;SDS011;5946;51.770;8.548;2023-05-02T06:05:51;87.83;;;40.83;;
11777;SDS011;5946;51.770;8.548;2023-05-02T06:08:18;78.47;;;38.00;;
11777;SDS011;5946;51.770;8.548;2023-05-02T06:10:45;77.40;;;36.53;;
11777;SDS011;5946;51.770;8.548;2023-05-02T06:13:11;56.87;;;29.70;;
11777;SDS011;5946;51.770;8.548;2023-05-02T06:15:37;38.03;;;20.17;;
11777;SDS011;5946;51.770;8.548;2023-05-02T06:18:03;31.47;;;18.43;;
11777;SDS011;5946;51.770;8.548;2023-05-02T06:20:29;28.83;;;15.43;;
11777;SDS011;5946;51.770;8.548;2023-05-02T06:22:55;23.43;;;13.90;;
11777;SDS011;5946;51.770;8.548;2023-05-02T06:25:21;16.60;;;11.40;;
11777;SDS011;5946;51.770;8.548;2023-05-02T06:27:47;17.93;;;11.17;;
11777;SDS011;5946;51.770;8.548;2023-05-02T06:30:13;18.80;;;11.60;;
11777;SDS011;5946;51.770;8.548;2023-05-02T06:32:39;13.00;;;9.70;;
11777;SDS011;5946;51.770;8.548;2023-05-02T06:35:08;12.57;;;9.57;;
11777;SDS011;5946;51.770;8.548;2023-05-02T06:37:34;11.90;;;8.27;;
11777;SDS011;5946;51.770;8.548;2023-05-02T06:40:00;10.63;;;7.80;;
11777;SDS011;5946;51.770;8.548;2023-05-02T06:42:26;12.00;;;8.27;;
11777;SDS011;5946;51.770;8.548;2023-05-02T06:44:53;14.13;;;8.07;;
11777;SDS011;5946;51.770;8.548;2023-05-02T06:47:19;13.07;;;7.63;;
11777;SDS011;5946;51.770;8.548;2023-05-02T06:49:46;10.07;;;8.00;;
11777;SDS011;5946;51.770;8.548;2023-05-02T06:52:12;10.37;;;6.90;;
11777;SDS011;5946;51.770;8.548;2023-05-02T06:54:38;9.07;;;6.93;;
11777;SDS011;5946;51.770;8.548;2023-05-02T06:57:06;10.70;;;7.20;;
11777;SDS011;5946;51.770;8.548;2023-05-02T06:59:32;8.93;;;7.00;;
11777;SDS011;5946;51.770;8.548;2023-05-02T07:01:58;8.77;;;6.33;;
11777;SDS011;5946;51.770;8.548;2023-05-02T07:04:24;9.07;;;6.87;;
11777;SDS011;5946;51.770;8.548;2023-05-02T07:06:49;6.70;;;6.00;;
11777;SDS011;5946;51.770;8.548;2023-05-02T07:09:15;7.87;;;6.63;;
11777;SDS011;5946;51.770;8.548;2023-05-02T07:11:42;8.13;;;6.33;;
11777;SDS011;5946;51.770;8.548;2023-05-02T07:14:08;6.20;;;5.60;;
11777;SDS011;5946;51.770;8.548;2023-05-02T07:16:34;7.37;;;6.43;;
11777;SDS011;5946;51.770;8.548;2023-05-02T07:19:00;10.60;;;7.10;;
11777;SDS011;5946;51.770;8.548;2023-05-02T07:21:28;7.50;;;5.77;;
11777;SDS011;5946;51.770;8.548;2023-05-02T07:23:54;7.13;;;6.10;;
11777;SDS011;5946;51.770;8.548;2023-05-02T07:26:21;7.30;;;6.23;;
11777;SDS011;5946;51.770;8.548;2023-05-02T07:28:47;10.80;;;6.40;;
11777;SDS011;5946;51.770;8.548;2023-05-02T07:31:13;8.70;;;6.20;;
11777;SDS011;5946;51.770;8.548;2023-05-02T07:33:39;8.20;;;6.53;;
11777;SDS011;5946;51.770;8.548;2023-05-02T07:36:05;7.60;;;5.60;;
11777;SDS011;5946;51.770;8.548;2023-05-02T07:38:31;6.00;;;5.40;;
11777;SDS011;5946;51.770;8.548;2023-05-02T07:40:57;9.73;;;5.63;;
11777;SDS011;5946;51.770;8.548;2023-05-02T07:43:23;8.37;;;4.87;;
11777;SDS011;5946;51.770;8.548;2023-05-02T07:45:50;5.77;;;4.63;;
11777;SDS011;5946;51.770;8.548;2023-05-02T07:48:16;6.37;;;4.37;;
11777;SDS011;5946;51.770;8.548;2023-05-02T07:50:42;6.30;;;4.30;;
11777;SDS011;5946;51.770;8.548;2023-05-02T07:53:09;6.53;;;4.47;;
11777;SDS011;5946;51.770;8.548;2023-05-02T07:55:35;7.23;;;4.83;;
11777;SDS011;5946;51.770;8.548;2023-05-02T07:58:01;7.70;;;4.77;;
11777;SDS011;5946;51.770;8.548;2023-05-02T08:00:28;6.93;;;4.83;;
11777;SDS011;5946;51.770;8.548;2023-05-02T08:02:54;11.70;;;4.83;;
11777;SDS011;5946;51.770;8.548;2023-05-02T08:05:20;6.63;;;4.97;;
11777;SDS011;5946;51.770;8.548;2023-05-02T08:07:46;8.27;;;5.10;;
11777;SDS011;5946;51.770;8.548;2023-05-02T08:10:12;8.37;;;4.97;;
11777;SDS011;5946;51.770;8.548;2023-05-02T08:12:39;14.40;;;5.60;;
11777;SDS011;5946;51.770;8.548;2023-05-02T08:15:06;7.43;;;4.77;;
11777;SDS011;5946;51.770;8.548;2023-05-02T08:17:32;14.13;;;4.80;;
11777;SDS011;5946;51.770;8.548;2023-05-02T08:19:58;11.40;;;5.00;;
11777;SDS011;5946;51.770;8.548;2023-05-02T08:22:25;9.47;;;5.60;;
11777;SDS011;5946;51.770;8.548;2023-05-02T08:24:51;12.20;;;4.43;;
11777;SDS011;5946;51.770;8.548;2023-05-02T08:27:17;7.00;;;4.70;;
11777;SDS011;5946;51.770;8.548;2023-05-02T08:29:43;8.13;;;4.60;;
11777;SDS011;5946;51.770;8.548;2023-05-02T08:32:09;8.13;;;4.60;;
11777;SDS011;5946;51.770;8.548;2023-05-02T08:34:35;11.20;;;4.50;;
11777;SDS011;5946;51.770;8.548;2023-05-02T08:37:06;9.60;;;4.70;;
11777;SDS011;5946;51.770;8.548;2023-05-02T08:39:32;11.93;;;4.57;;
11777;SDS011;5946;51.770;8.548;2023-05-02T08:41:58;8.90;;;4.73;;
11777;SDS011;5946;51.770;8.548;2023-05-02T08:44:24;12.47;;;4.80;;
11777;SDS011;5946;51.770;8.548;2023-05-02T08:46:50;9.73;;;4.70;;
11777;SDS011;5946;51.770;8.548;2023-05-02T08:49:17;10.93;;;4.87;;
11777;SDS011;5946;51.770;8.548;2023-05-02T08:51:43;12.47;;;5.63;;
11777;SDS011;5946;51.770;8.548;2023-05-02T08:54:09;10.03;;;4.60;;
11777;SDS011;5946;51.770;8.548;2023-05-02T08:56:36;11.03;;;5.43;;
11777;SDS011;5946;51.770;8.548;2023-05-02T08:59:02;14.30;;;6.33;;
11777;SDS011;5946;51.770;8.548;2023-05-02T09:01:29;12.23;;;5.53;;
11777;SDS011;5946;51.770;8.548;2023-05-02T09:03:55;10.37;;;5.57;;
11777;SDS011;5946;51.770;8.548;2023-05-02T09:06:25;12.87;;;5.47;;
11777;SDS011;5946;51.770;8.548;2023-05-02T09:08:52;16.97;;;5.60;;
11777;SDS011;5946;51.770;8.548;2023-05-02T09:11:18;11.83;;;5.73;;
11777;SDS011;5946;51.770;8.548;2023-05-02T09:13:46;14.43;;;6.30;;
11777;SDS011;5946;51.770;8.548;2023-05-02T09:16:13;14.57;;;5.57;;
11777;SDS011;5946;51.770;8.548;2023-05-02T09:18:41;13.20;;;5.47;;
11777;SDS011;5946;51.770;8.548;2023-05-02T09:21:08;10.63;;;5.27;;
11777;SDS011;5946;51.770;8.548;2023-05-02T09:28:42;13.70;;;5.10;;
11777;SDS011;5946;51.770;8.548;2023-05-02T09:31:09;12.67;;;4.83;;
11777;SDS011;5946;51.770;8.548;2023-05-02T09:33:36;18.83;;;6.00;;
11777;SDS011;5946;51.770;8.548;2023-05-02T09:36:03;12.20;;;4.90;;
11777;SDS011;5946;51.770;8.548;2023-05-02T09:38:30;15.10;;;5.60;;
11777;SDS011;5946;51.770;8.548;2023-05-02T09:40:56;12.47;;;5.23;;
11777;SDS011;5946;51.770;8.548;2023-05-02T09:43:22;15.67;;;5.77;;
11777;SDS011;5946;51.770;8.548;2023-05-02T09:45:55;13.97;;;5.30;;
11777;SDS011;5946;51.770;8.548;2023-05-02T09:48:21;13.23;;;5.47;;
11777;SDS011;5946;51.770;8.548;2023-05-02T09:50:47;14.43;;;5.23;;
11777;SDS011;5946;51.770;8.548;2023-05-02T09:53:13;15.30;;;5.00;;
11777;SDS011;5946;51.770;8.548;2023-05-02T09:55:39;15.13;;;5.57;;
11777;SDS011;5946;51.770;8.548;2023-05-02T09:58:05;16.63;;;6.03;;
11777;SDS011;5946;51.770;8.548;2023-05-02T10:00:38;17.13;;;5.97;;
11777;SDS011;5946;51.770;8.548;2023-05-02T10:03:07;15.07;;;5.90;;
11777;SDS011;5946;51.770;8.548;2023-05-02T10:05:36;18.73;;;5.50;;
11777;SDS011;5946;51.770;8.548;2023-05-02T10:08:06;11.20;;;5.40;;
11777;SDS011;5946;51.770;8.548;2023-05-02T10:10:37;15.83;;;5.40;;
11777;SDS011;5946;51.770;8.548;2023-05-02T10:13:03;9.87;;;4.30;;
11777;SDS011;5946;51.770;8.548;2023-05-02T10:15:30;16.03;;;4.53;;
11777;SDS011;5946;51.770;8.548;2023-05-02T10:17:57;14.87;;;4.30;;
11777;SDS011;5946;51.770;8.548;2023-05-02T10:20:25;10.60;;;4.23;;
11777;SDS011;5946;51.770;8.548;2023-05-02T10:22:54;9.93;;;4.10;;
11777;SDS011;5946;51.770;8.548;2023-05-02T10:25:21;10.17;;;4.07;;
11777;SDS011;5946;51.770;8.548;2023-05-02T10:27:47;7.33;;;3.53;;
11777;SDS011;5946;51.770;8.548;2023-05-02T10:30:13;7.60;;;3.80;;
11777;SDS011;5946;51.770;8.548;2023-05-02T10:32:39;10.70;;;3.50;;
11777;SDS011;5946;51.770;8.548;2023-05-02T10:35:06;8.83;;;3.73;;
11777;SDS011;5946;51.770;8.548;2023-05-02T10:37:33;9.97;;;3.60;;
11777;SDS011;5946;51.770;8.548;2023-05-02T10:40:00;9.10;;;3.60;;
11777;SDS011;5946;51.770;8.548;2023-05-02T10:42:27;9.80;;;4.00;;
11777;SDS011;5946;51.770;8.548;2023-05-02T10:44:53;6.50;;;3.77;;
11777;SDS011;5946;51.770;8.548;2023-05-02T10:47:20;8.63;;;4.17;;
11777;SDS011;5946;51.770;8.548;2023-05-02T10:49:50;11.47;;;4.00;;
11777;SDS011;5946;51.770;8.548;2023-05-02T10:52:29;10.10;;;3.30;;
11777;SDS011;5946;51.770;8.548;2023-05-02T10:55:13;7.07;;;3.50;;
11777;SDS011;5946;51.770;8.548;2023-05-02T11:00:24;9.97;;;3.50;;
11777;SDS011;5946;51.770;8.548;2023-05-02T11:02:50;7.67;;;3.73;;
11777;SDS011;5946;51.770;8.548;2023-05-02T11:05:16;8.53;;;4.57;;
11777;SDS011;5946;51.770;8.548;2023-05-02T11:07:42;11.63;;;4.03;;
11777;SDS011;5946;51.770;8.548;2023-05-02T11:15:10;10.40;;;3.60;;
11777;SDS011;5946;51.770;8.548;2023-05-02T11:20:21;6.57;;;3.57;;
11777;SDS011;5946;51.770;8.548;2023-05-02T11:22:47;6.97;;;3.40;;
11777;SDS011;5946;51.770;8.548;2023-05-02T11:25:30;13.43;;;4.60;;
11777;SDS011;5946;51.770;8.548;2023-05-02T11:27:56;8.90;;;3.80;;
11777;SDS011;5946;51.770;8.548;2023-05-02T11:30:38;12.07;;;4.33;;
11777;SDS011;5946;51.770;8.548;2023-05-02T11:35:32;12.03;;;4.63;;
11777;SDS011;5946;51.770;8.548;2023-05-02T11:38:00;10.37;;;4.60;;
11777;SDS011;5946;51.770;8.548;2023-05-02T11:40:30;8.33;;;3.70;;
11777;SDS011;5946;51.770;8.548;2023-05-02T11:42:57;7.80;;;4.00;;
11777;SDS011;5946;51.770;8.548;2023-05-02T11:45:33;7.90;;;3.80;;
11777;SDS011;5946;51.770;8.548;2023-05-02T11:48:00;10.90;;;4.37;;
11777;SDS011;5946;51.770;8.548;2023-05-02T11:50:27;8.77;;;3.93;;
11777;SDS011;5946;51.770;8.548;2023-05-02T11:52:54;7.77;;;3.57;;
11777;SDS011;5946;51.770;8.548;2023-05-02T11:55:21;8.67;;;4.23;;
11777;SDS011;5946;51.770;8.548;2023-05-02T11:57:47;7.17;;;3.80;;
11777;SDS011;5946;51.770;8.548;2023-05-02T12:00:13;8.50;;;3.40;;
11777;SDS011;5946;51.770;8.548;2023-05-02T12:05:08;6.93;;;3.70;;
11777;SDS011;5946;51.770;8.548;2023-05-02T12:10:02;9.73;;;4.17;;
11777;SDS011;5946;51.770;8.548;2023-05-02T12:12:28;8.00;;;3.70;;
11777;SDS011;5946;51.770;8.548;2023-05-02T12:14:54;9.77;;;4.10;;
11777;SDS011;5946;51.770;8.548;2023-05-02T12:17:20;8.47;;;3.90;;
11777;SDS011;5946;51.770;8.548;2023-05-02T12:19:46;13.57;;;4.60;;
11777;SDS011;5946;51.770;8.548;2023-05-02T12:22:12;11.07;;;4.43;;
11777;SDS011;5946;51.770;8.548;2023-05-02T12:24:39;11.43;;;4.23;;
11777;SDS011;5946;51.770;8.548;2023-05-02T12:27:12;10.07;;;4.27;;
11777;SDS011;5946;51.770;8.548;2023-05-02T12:29:41;12.03;;;4.33;;
11777;SDS011;5946;51.770;8.548;2023-05-02T12:32:08;8.83;;;4.00;;
11777;SDS011;5946;51.770;8.548;2023-05-02T12:34:34;9.43;;;3.90;;
11777;SDS011;5946;51.770;8.548;2023-05-02T12:37:01;7.07;;;3.77;;
11777;SDS011;5946;51.770;8.548;2023-05-02T12:39:37;8.30;;;4.10;;
11777;SDS011;5946;51.770;8.548;2023-05-02T12:44:38;6.67;;;3.80;;
11777;SDS011;5946;51.770;8.548;2023-05-02T12:47:05;11.13;;;4.67;;
11777;SDS011;5946;51.770;8.548;2023-05-02T12:49:31;11.87;;;4.73;;
11777;SDS011;5946;51.770;8.548;2023-05-02T12:51:57;9.90;;;5.13;;
11777;SDS011;5946;51.770;8.548;2023-05-02T12:54:24;8.27;;;4.60;;
11777;SDS011;5946;51.770;8.548;2023-05-02T12:56:50;9.90;;;4.30;;
11777;SDS011;5946;51.770;8.548;2023-05-02T12:59:29;9.73;;;4.67;;
11777;SDS011;5946;51.770;8.548;2023-05-02T13:01:55;13.37;;;4.70;;
11777;SDS011;5946;51.770;8.548;2023-05-02T13:04:32;9.83;;;4.20;;
11777;SDS011;5946;51.770;8.548;2023-05-02T13:06:58;5.87;;;3.33;;
11777;SDS011;5946;51.770;8.548;2023-05-02T13:09:24;9.00;;;4.00;;
11777;SDS011;5946;51.770;8.548;2023-05-02T13:11:51;7.90;;;3.40;;
11777;SDS011;5946;51.770;8.548;2023-05-02T13:14:18;7.83;;;3.80;;
11777;SDS011;5946;51.770;8.548;2023-05-02T13:16:44;5.60;;;3.37;;
11777;SDS011;5946;51.770;8.548;2023-05-02T13:19:10;10.73;;;3.43;;
11777;SDS011;5946;51.770;8.548;2023-05-02T13:21:36;10.53;;;3.77;;
11777;SDS011;5946;51.770;8.548;2023-05-02T13:24:02;7.70;;;3.53;;
11777;SDS011;5946;51.770;8.548;2023-05-02T13:26:28;6.10;;;3.83;;
11777;SDS011;5946;51.770;8.548;2023-05-02T13:28:54;7.13;;;3.97;;
11777;SDS011;5946;51.770;8.548;2023-05-02T13:31:20;7.13;;;3.70;;
11777;SDS011;5946;51.770;8.548;2023-05-02T13:33:46;8.37;;;3.50;;
11777;SDS011;5946;51.770;8.548;2023-05-02T13:36:12;6.77;;;3.70;;
11777;SDS011;5946;51.770;8.548;2023-05-02T13:38:38;8.87;;;3.53;;
11777;SDS011;5946;51.770;8.548;2023-05-02T13:41:04;9.03;;;3.80;;
11777;SDS011;5946;51.770;8.548;2023-05-02T13:43:30;7.10;;;3.93;;
11777;SDS011;5946;51.770;8.548;2023-05-02T13:45:56;8.80;;;3.73;;
11777;SDS011;5946;51.770;8.548;2023-05-02T13:48:22;6.90;;;3.70;;
11777;SDS011;5946;51.770;8.548;2023-05-02T13:50:49;10.07;;;3.63;;
11777;SDS011;5946;51.770;8.548;2023-05-02T13:53:15;6.20;;;3.40;;
11777;SDS011;5946;51.770;8.548;2023-05-02T13:55:41;7.13;;;3.53;;
11777;SDS011;5946;51.770;8.548;2023-05-02T13:58:07;8.27;;;3.57;;
11777;SDS011;5946;51.770;8.548;2023-05-02T14:00:33;6.97;;;3.47;;
11777;SDS011;5946;51.770;8.548;2023-05-02T14:02:58;5.83;;;3.40;;
11777;SDS011;5946;51.770;8.548;2023-05-02T14:05:24;5.60;;;3.00;;
11777;SDS011;5946;51.770;8.548;2023-05-02T14:07:50;7.80;;;2.97;;
11777;SDS011;5946;51.770;8.548;2023-05-02T14:10:16;5.60;;;3.07;;
11777;SDS011;5946;51.770;8.548;2023-05-02T14:12:42;7.97;;;3.30;;
11777;SDS011;5946;51.770;8.548;2023-05-02T14:15:08;5.10;;;3.00;;
11777;SDS011;5946;51.770;8.548;2023-05-02T14:17:35;7.37;;;3.87;;
11777;SDS011;5946;51.770;8.548;2023-05-02T14:20:01;13.20;;;3.70;;
11777;SDS011;5946;51.770;8.548;2023-05-02T14:22:27;8.07;;;3.57;;
11777;SDS011;5946;51.770;8.548;2023-05-02T14:24:53;7.47;;;3.17;;
11777;SDS011;5946;51.770;8.548;2023-05-02T14:27:19;7.70;;;3.40;;
11777;SDS011;5946;51.770;8.548;2023-05-02T14:29:46;8.50;;;3.87;;
11777;SDS011;5946;51.770;8.548;2023-05-02T14:32:12;6.03;;;3.72;;
11777;SDS011;5946;51.770;8.548;2023-05-02T14:34:38;9.10;;;3.72;;
11777;SDS011;5946;51.770;8.548;2023-05-02T14:37:05;6.15;;;3.35;;
11777;SDS011;5946;51.770;8.548;2023-05-02T14:39:33;5.03;;;3.13;;
11777;SDS011;5946;51.770;8.548;2023-05-02T14:42:00;8.10;;;3.30;;
11777;SDS011;5946;51.770;8.548;2023-05-02T14:44:28;9.93;;;3.55;;
11777;SDS011;5946;51.770;8.548;2023-05-02T14:46:54;6.18;;;3.35;;
11777;SDS011;5946;51.770;8.548;2023-05-02T14:49:22;4.73;;;3.53;;
11777;SDS011;5946;51.770;8.548;2023-05-02T14:51:49;9.33;;;4.07;;
11777;SDS011;5946;51.770;8.548;2023-05-02T14:54:15;8.03;;;4.30;;
11777;SDS011;5946;51.770;8.548;2023-05-02T14:56:41;6.30;;;3.70;;
11777;SDS011;5946;51.770;8.548;2023-05-02T14:59:07;7.27;;;3.90;;
11777;SDS011;5946;51.770;8.548;2023-05-02T15:01:33;6.00;;;3.57;;
11777;SDS011;5946;51.770;8.548;2023-05-02T15:04:01;8.33;;;4.17;;
11777;SDS011;5946;51.770;8.548;2023-05-02T15:06:30;11.43;;;4.63;;
11777;SDS011;5946;51.770;8.548;2023-05-02T15:08:56;10.23;;;4.20;;
11777;SDS011;5946;51.770;8.548;2023-05-02T15:11:22;9.40;;;4.30;;
11777;SDS011;5946;51.770;8.548;2023-05-02T15:13:48;8.47;;;3.90;;
11777;SDS011;5946;51.770;8.548;2023-05-02T15:16:14;9.30;;;4.60;;
11777;SDS011;5946;51.770;8.548;2023-05-02T15:18:40;8.83;;;4.33;;
11777;SDS011;5946;51.770;8.548;2023-05-02T15:21:06;11.20;;;4.93;;
11777;SDS011;5946;51.770;8.548;2023-05-02T15:23:32;10.80;;;4.80;;
11777;SDS011;5946;51.770;8.548;2023-05-02T15:25:58;8.00;;;4.73;;
11777;SDS011;5946;51.770;8.548;2023-05-02T15:28:24;11.03;;;4.83;;